Portada
METAR-TAF:

METAR-TAF

Aeroports :

Bahawalpur, Pakistan

latitud: 29-20-53N, longitud: 71-43-04E, altitud: 119 m

METAR: manca

Hora: 17:37 (12:37 UTC)

Pronòstic

L'informe es va fer fa 2 hores i 52 minuts, a les 09:45 UTC
Pronòstic vàlid del 25 a les 12 UTC al 26 a les 06 UTC
Vent 10 kt del Sud-Est
Visibilitat: 4000 m
calitja

TAF: OPBW 250945Z 2512/2606 13010KT 4000 HZ NSC TN28/2601

Observacions i pronòstics meteorològics de més de 4000 aeroports (METAR i TAF).

Les estacions disponibles són els punts grocs i vermells al mapa.

Posi el ratolí al punt desitjat per veure el nom de l'estació.

Feu clic per veure les observacions i els pronòstics meteorològics.

Per canviar el mapa: feu clic els botons verds amb una creu de color negre per apropar; al botó verd amb un guió per allunyar la imatge; o en les fletxes verdes per a mapes adjacents.


METAR-TAF: